• Join FlightAware (Why Join?)
  • Login
  • US Flag 
12:51AM EDT


 

Airport Tracker/Info


-or-


 

Live Flight TrackerFlight Track Log ✈ SWA2975 ✈ 05-Jul-2013 ✈ KSLC - KMDW

Flight Track Log - Related Links

Times and Time Zones

All times are in EDT time to prevent confusion due to time zone crossing. See the SWA2975 flight status page for this flight to view local times or setup timezone preferences in your user account.

Time Position Orientation Groundspeed Altitude Reporting Facility
EDT Latitude Longitude Course Direction KTS MPH feet Rate Location/Type
06:28PM 40.8050 -111.9770 354° North 183 211 4,600  Level FlightAware
06:29PM 40.8150 -111.9780 356° North 185 213 5,200 1,680 Climbing FlightAware
06:29PM 40.8430 -111.9810 355° North 225 259 5,800 1,440 Climbing FlightAware
06:29PM 40.8740 -111.9850 354° North 251 289 6,600 1,800 Climbing FlightAware
06:30PM 40.9290 -111.9930 354° North 276 318 8,200 2,400 Climbing FlightAware
06:31PM 40.9630 -111.9980 354° North 279 321 9,400 2,880 Climbing FlightAware
06:31PM 41.0160 -111.9710 21° North 292 336 11,500 2,580 Climbing FlightAware
06:32PM 41.0220 -111.9470 72° East 296 341 12,100 1,440 Climbing FlightAware
06:32PM 41.0260 -111.8580 87° East 352 405 12,900 1,200 Climbing FlightAware
06:33PM 41.0390 -111.7690 79° East 387 445 13,800 1,980 Climbing FlightAware
06:34PM 41.0610 -111.6660 74° East 395 455 15,700 2,460 Climbing FlightAware
06:34PM 41.0810 -111.5720 74° East 407 468 17,300 2,280 Climbing FlightAware
06:35PM 41.1040 -111.4660 74° East 419 482 18,900 2,160 Climbing FlightAware
06:36PM 41.1250 -111.3650 75° East 427 491 20,400 1,500 Climbing FlightAware
06:36PM 41.1430 -111.2810 74° East 429 494 20,900 360 Climbing FlightAware
06:37PM 41.1600 -111.2010 74° East 429 494 20,900  Level FlightAware
06:38PM 41.1820 -111.1020 74° East 429 494 20,900  Level FlightAware
06:38PM 41.1980 -111.0250 75° East 429 494 20,900  Level FlightAware
06:39PM 41.2210 -110.9210 74° East 429 494 20,900  Level FlightAware
06:40PM 41.2360 -110.8480 75° East 429 494 20,900 2,400 Level FlightAware
06:44PM 41.2850 -110.0130 85° East 531 611 31,400 2,640 Climbing FlightAware
06:44PM 41.2950 -109.9100 83° East 525 604 32,300 1,560 Climbing FlightAware
06:45PM 41.3080 -109.7670 83° East 518 596 33,500 1,560 Climbing FlightAware
06:46PM 41.3110 -109.5920 89° East 502 578 35,000 900 Climbing FlightAware
06:46PM 41.3020 -109.4660 95° East 502 578 35,000  Level FlightAware
06:47PM 41.2930 -109.3430 96° East 498 573 35,000  Level FlightAware
06:48PM 41.2830 -109.2050 95° East 496 571 35,000  Level FlightAware
06:49PM 41.2700 -109.0850 98° East 497 572 35,000  Level FlightAware
06:49PM 41.2570 -108.9700 99° East 496 571 35,000  Level FlightAware
06:50PM 41.2440 -108.8500 98° East 495 570 35,000  Level FlightAware
06:51PM 41.2290 -108.7180 99° East 493 567 35,000  Level FlightAware
06:51PM 41.2180 -108.6230 99° East 490 564 35,000  Level FlightAware
06:52PM 41.2030 -108.4970 99° East 489 563 35,000  Level FlightAware
06:53PM 41.1860 -108.3600 99° East 487 560 35,000  Level FlightAware
06:53PM 41.1730 -108.2570 99° East 489 563 35,000  Level FlightAware
06:54PM 41.1590 -108.1280 98° East 491 565 35,000  Level FlightAware
06:55PM 41.1460 -108.0010 98° East 491 565 35,000  Level FlightAware
06:55PM 41.1390 -107.9230 97° East 491 565 35,000  Level FlightAware
06:56PM 41.1330 -107.7860 93° East 489 563 35,000  Level FlightAware
06:56PM 41.1300 -107.6890 92° East 488 562 35,000  Level FlightAware
06:57PM 41.1260 -107.5580 92° East 487 560 35,000  Level FlightAware
06:58PM 41.1220 -107.4330 92° East 485 558 35,000  Level FlightAware
06:58PM 41.1190 -107.3250 92° East 485 558 35,000  Level FlightAware
06:59PM 41.1170 -107.2050 91° East 484 557 35,000  Level FlightAware
07:00PM 41.1150 -107.0820 91° East 485 558 35,000  Level FlightAware
07:00PM 41.1120 -106.9620 92° East 485 558 35,000  Level FlightAware
07:01PM 41.1100 -106.8380 91° East 487 560 35,000  Level FlightAware
07:02PM 41.1070 -106.7120 92° East 487 560 35,000  Level FlightAware
07:03PM 41.1030 -106.5760 92° East 487 560 35,000  Level FlightAware
07:03PM 41.0970 -106.4700 94° East 488 562 35,000  Level FlightAware
07:04PM 41.0860 -106.3490 97° East 489 563 35,000  Level FlightAware
07:05PM 41.0720 -106.2320 99° East 491 565 35,000  Level FlightAware
07:05PM 41.0590 -106.1250 99° East 491 565 35,000  Level FlightAware
07:06PM 41.0430 -105.9940 99° East 486 559 35,000  Level FlightAware
07:07PM 41.0290 -105.8780 99° East 484 557 35,000  Level FlightAware
07:07PM 41.0110 -105.7490 100° East 483 556 35,000  Level FlightAware
07:08PM 40.9940 -105.6320 101° East 484 557 35,000  Level FlightAware
07:09PM 40.9910 -105.4640 91° East 483 556 35,000  Level FlightAware
07:10PM 41.0030 -105.3460 82° East 482 555 35,000  Level FlightAware
07:10PM 41.0130 -105.2450 82° East 478 550 35,000  Level FlightAware
07:11PM 41.0280 -105.0810 83° East 478 550 35,000  Level FlightAware
07:12PM 41.0400 -104.9510 83° East 478 550 35,000  Level FlightAware
07:13PM 41.0510 -104.8400 82° East 476 548 35,000  Level FlightAware
07:13PM 41.0620 -104.7140 83° East 474 545 35,000  Level FlightAware
07:14PM 41.0730 -104.5940 83° East 473 544 35,000  Level FlightAware
07:15PM 41.0830 -104.4840 83° East 474 545 35,000  Level FlightAware
07:15PM 41.0930 -104.3740 83° East 474 545 35,000  Level FlightAware
07:16PM 41.1030 -104.2550 84° East 478 550 35,000  Level FlightAware
07:17PM 41.1140 -104.1370 83° East 483 556 35,000  Level FlightAware
07:17PM 41.1240 -104.0230 83° East 488 562 35,000  Level FlightAware
07:18PM 41.1340 -103.9010 84° East 488 562 35,000  Level FlightAware
07:19PM 41.1440 -103.7860 83° East 488 562 35,000  Level FlightAware
07:19PM 41.1550 -103.6520 84° East 489 563 35,000  Level FlightAware
07:20PM 41.1650 -103.5320 84° East 491 565 35,000  Level FlightAware
07:21PM 41.1730 -103.4290 84° East 492 566 35,000  Level FlightAware
07:21PM 41.1860 -103.2740 84° East 492 566 35,000  Level FlightAware
07:22PM 41.1950 -103.1630 84° East 493 567 35,000  Level FlightAware
07:23PM 41.2040 -103.0550 84° East 495 570 35,000  Level FlightAware
07:23PM 41.2140 -102.9210 84° East 498 573 35,000  Level FlightAware
07:24PM 41.2230 -102.7980 84° East 500 575 35,000  Level FlightAware
07:25PM 41.2320 -102.6840 84° East 499 574 35,000  Level FlightAware
07:25PM 41.2410 -102.5580 85° East 494 568 35,000  Level FlightAware
07:26PM 41.2500 -102.4340 84° East 495 570 35,000  Level FlightAware
07:27PM 41.2590 -102.2970 85° East 496 571 35,000  Level FlightAware
07:27PM 41.2670 -102.1830 85° East 493 567 35,000  Level FlightAware
07:28PM 41.2770 -102.0500 84° East 490 564 35,000  Level FlightAware
07:29PM 41.2850 -101.9300 85° East 490 564 35,000  Level FlightAware
07:30PM 41.2940 -101.7930 85° East 489 563 35,000  Level FlightAware
07:30PM 41.3020 -101.6750 85° East 487 560 35,000  Level FlightAware
07:31PM 41.3080 -101.5740 85° East 486 559 35,000  Level FlightAware
07:32PM 41.3170 -101.4450 85° East 486 559 35,000  Level FlightAware
07:32PM 41.3230 -101.3510 85° East 486 559 35,000  Level FlightAware
07:33PM 41.3330 -101.1840 85° East 489 563 35,000  Level FlightAware
07:34PM 41.3420 -101.0460 85° East 489 563 35,000  Level FlightAware
07:34PM 41.3480 -100.9540 85° East 489 563 35,000  Level FlightAware
07:35PM 41.3560 -100.8310 85° East 489 563 35,000  Level FlightAware
07:36PM 41.3620 -100.7340 85° East 489 563 35,000  Level FlightAware
07:37PM 41.3720 -100.5780 85° East 489 563 35,000  Level FlightAware
07:38PM 41.3780 -100.4870 85° East 489 563 35,000  Level FlightAware
07:38PM 41.3850 -100.3950 84° East 489 563 35,000  Level FlightAware
07:39PM 41.3950 -100.2390 85° East 489 563 35,000  Level FlightAware
07:40PM 41.4010 -100.1470 85° East 489 563 35,000  Level FlightAware
07:40PM 41.4070 -100.0550 85° East 489 563 35,000  Level FlightAware
07:41PM 41.4150 -99.9320 85° East 489 563 35,000  Level FlightAware
07:42PM 41.4210 -99.8400 85° East 489 563 35,000  Level FlightAware
07:43PM 41.4290 -99.7180 85° East 489 563 35,000  Level FlightAware
07:47PM 41.4560 -98.7480 88° East 478 550 35,000  Level FlightAware
07:47PM 41.4580 -98.6830 88° East 478 550 35,000  Level FlightAware
07:48PM 41.4630 -98.5620 87° East 478 550 35,000  Level FlightAware
07:49PM 41.4670 -98.4720 87° East 478 550 35,000  Level FlightAware
07:49PM 41.4710 -98.3490 87° East 478 550 35,000  Level FlightAware
07:50PM 41.4780 -98.1540 87° East 470 541 35,000  Level FlightAware
07:51PM 41.4820 -98.0290 88° East 469 540 35,000  Level FlightAware
07:52PM 41.4860 -97.9190 87° East 468 539 35,000  Level FlightAware
07:52PM 41.4890 -97.8130 88° East 468 539 35,000  Level FlightAware
07:53PM 41.4930 -97.6940 87° East 468 539 35,000  Level FlightAware
07:54PM 41.4970 -97.5680 88° East 467 537 35,000  Level FlightAware
07:54PM 41.5000 -97.4630 88° East 467 537 35,000  Level FlightAware
07:55PM 41.5030 -97.3440 88° East 468 539 35,000  Level FlightAware
07:56PM 41.5060 -97.2270 88° East 468 539 35,000  Level FlightAware
07:56PM 41.5090 -97.1260 88° East 467 537 35,000  Level FlightAware
07:57PM 41.5120 -97.0100 88° East 466 536 35,000  Level FlightAware
07:58PM 41.5150 -96.8890 88° East 465 535 35,000  Level FlightAware
07:58PM 41.5170 -96.7760 89° East 463 533 35,000  Level FlightAware
07:59PM 41.5200 -96.6490 88° East 462 532 35,000  Level FlightAware
08:00PM 41.5230 -96.5300 88° East 460 529 35,000  Level FlightAware
08:00PM 41.5250 -96.4070 89° East 458 527 35,000  Level FlightAware
08:01PM 41.5270 -96.3070 88° East 456 525 35,000  Level FlightAware
08:02PM 41.5290 -96.1930 89° East 454 522 35,000  Level FlightAware
08:02PM 41.5310 -96.0840 89° East 453 521 35,000  Level FlightAware
08:03PM 41.5330 -95.9710 89° East 452 520 35,000  Level FlightAware
08:04PM 41.5350 -95.8610 89° East 452 520 35,000  Level FlightAware
08:04PM 41.5360 -95.7600 89° East 456 525 35,000  Level FlightAware
08:05PM 41.5380 -95.6370 89° East 458 527 35,000  Level FlightAware
08:06PM 41.5390 -95.5070 89° East 458 527 35,000  Level FlightAware
08:06PM 41.5400 -95.3970 89° East 459 528 35,000  Level FlightAware
08:07PM 41.5420 -95.2870 89° East 459 528 35,000  Level FlightAware
08:08PM 41.5430 -95.1500 89° East 460 529 35,000  Level FlightAware
08:08PM 41.5440 -95.0740 89° East 460 529 35,000  Level FlightAware
08:09PM 41.5450 -94.9290 89° East 460 529 35,000  Level FlightAware
08:10PM 41.5450 -94.7780 90° East 465 535 35,000  Level FlightAware
08:11PM 41.5460 -94.6680 89° East 465 535 35,000  Level FlightAware
08:11PM 41.5470 -94.5700 89° East 465 535 35,000  Level FlightAware
08:12PM 41.5490 -94.4530 89° East 465 535 35,000  Level FlightAware
08:13PM 41.5480 -94.2590 90° East 462 532 35,000  Level FlightAware
08:14PM 41.5470 -94.1150 90° East 460 529 35,000  Level FlightAware
08:15PM 41.5470 -94.0020 90° East 459 528 35,000  Level FlightAware
08:15PM 41.5420 -93.9010 94° East 465 535 35,000  Level FlightAware
08:16PM 41.5330 -93.7790 96° East 465 535 35,000  Level FlightAware
08:17PM 41.5250 -93.6720 96° East 464 534 35,000  Level FlightAware
08:17PM 41.5160 -93.5350 95° East 463 533 35,000  Level FlightAware
08:18PM 41.5070 -93.4210 96° East 462 532 35,000  Level FlightAware
08:19PM 41.4980 -93.2990 96° East 462 532 35,000  Level FlightAware
08:19PM 41.4900 -93.1850 95° East 461 531 35,000  Level FlightAware
08:20PM 41.4810 -93.0710 96° East 459 528 35,000 -480 Level FlightAware
08:21PM 41.4740 -92.9760 96° East 452 520 34,400 -1,020 Descending FlightAware
08:21PM 41.4640 -92.8470 96° East 457 526 33,700 -960 Descending FlightAware
08:22PM 41.4560 -92.7460 96° East 464 534 33,100 -600 Descending FlightAware
08:23PM 41.4470 -92.6350 96° East 464 534 33,000 -480 Descending FlightAware
08:24PM 41.4330 -92.4700 96° East 455 524 32,400 -780 Descending FlightAware
08:24PM 41.4250 -92.3750 96° East 449 517 31,800 -1,080 Descending FlightAware
08:25PM 41.4160 -92.2630 96° East 449 517 31,100 -660 Descending FlightAware
08:25PM 41.4070 -92.1580 96° East 446 513 31,000 -120 Descending FlightAware
08:26PM 41.3970 -92.0340 96° East 447 514 31,000  Level FlightAware
08:27PM 41.3870 -91.9240 97° East 450 518 31,000  Level FlightAware
08:28PM 41.3770 -91.8140 97° East 450 518 31,000  Level FlightAware
08:28PM 41.3660 -91.6820 96° East 449 517 31,000  Level FlightAware
08:29PM 41.3570 -91.5880 97° East 448 516 31,000  Level FlightAware
08:30PM 41.3470 -91.4740 97° East 447 514 31,000  Level FlightAware
08:30PM 41.3370 -91.3670 97° East 446 513 31,000  Level FlightAware
08:31PM 41.3290 -91.2720 96° East 446 513 31,000  Level FlightAware
08:32PM 41.3180 -91.1550 97° East 445 512 31,000 -360 Level FlightAware
08:32PM 41.3070 -91.0380 97° East 440 506 30,500 -1,560 Descending FlightAware
08:33PM 41.2970 -90.9340 97° East 432 497 28,900 -2,340 Descending FlightAware
08:34PM 41.2860 -90.8210 97° East 421 484 27,300 -2,160 Descending FlightAware
08:34PM 41.2750 -90.7110 98° East 411 473 25,800 -2,100 Descending FlightAware
08:35PM 41.2660 -90.6200 97° East 403 464 24,500 -1,980 Descending FlightAware
08:36PM 41.2560 -90.5090 97° East 401 461 23,100 -1,140 Descending FlightAware
08:36PM 41.2610 -90.4280 85° East 398 458 23,000 -120 Descending FlightAware
08:37PM 41.2770 -90.3180 79° East 399 459 23,000  Level FlightAware
08:38PM 41.2900 -90.2240 80° East 399 459 23,000  Level FlightAware
08:38PM 41.3030 -90.1350 79° East 398 458 23,000 -420 Level FlightAware
08:39PM 41.3160 -90.0410 80° East 393 452 22,500 -1,380 Descending FlightAware
08:40PM 41.3300 -89.9420 79° East 384 442 21,100 -1,500 Descending FlightAware
08:41PM 41.3450 -89.8370 79° East 389 448 20,400 -1,020 Descending FlightAware
08:41PM 41.3580 -89.7420 80° East 384 442 19,700 -1,020 Descending FlightAware
08:42PM 41.3730 -89.6370 79° East 383 441 19,000 -1,020 Descending FlightAware
08:43PM 41.3850 -89.5490 80° East 381 438 18,300 -1,080 Descending FlightAware
08:43PM 41.4000 -89.4360 80° East 375 432 17,500 -1,320 Descending FlightAware
08:44PM 41.4120 -89.3450 80° East 368 423 16,400 -1,800 Descending FlightAware
08:45PM 41.4260 -89.2430 80° East 361 415 14,900 -1,920 Descending FlightAware
08:45PM 41.4380 -89.1580 79° East 355 409 13,700 -1,860 Descending FlightAware
08:46PM 41.4500 -89.0680 80° East 347 399 12,400 -1,920 Descending FlightAware
08:47PM 41.4620 -88.9750 80° East 340 391 11,000 -1,620 Descending FlightAware
08:48PM 41.4730 -88.8910 80° East 322 371 10,100 -1,020 Descending FlightAware
08:48PM 41.4790 -88.8450 80° East 302 348 9,900 -900 Descending FlightAware
08:48PM 41.4840 -88.8020 81° East 298 343 9,400 -1,380 Descending FlightAware
08:49PM 41.4880 -88.7730 80° East 296 341 9,000 -1,500 Descending FlightAware
08:49PM 41.4940 -88.7290 80° East 294 338 8,400 -1,500 Descending FlightAware
08:49PM 41.4980 -88.7020 79° East 292 336 8,000 -1,380 Descending FlightAware
08:50PM 41.5040 -88.6530 81° East 289 333 7,400 -1,440 Descending FlightAware
08:50PM 41.5080 -88.6210 81° East 287 330 6,900 -1,500 Descending FlightAware
08:51PM 41.5150 -88.5690 80° East 285 328 6,200 -1,020 Descending FlightAware
08:51PM 41.5200 -88.5200 82° East 276 318 5,900 -360 Descending FlightAware
08:52PM 41.5230 -88.4760 85° East 274 315 5,900 -480 Level FlightAware
08:52PM 41.5250 -88.4290 87° East 276 318 5,500 -960 Descending FlightAware
08:52PM 41.5280 -88.3780 85° East 276 318 5,000 -660 Descending FlightAware
08:53PM 41.5310 -88.3300 85° East 275 316 4,900 -120 Descending FlightAware
08:53PM 41.5350 -88.2840 83° East 274 315 4,900  Level FlightAware
08:54PM 41.5380 -88.2330 85° East 275 316 4,900  Level FlightAware
08:54PM 41.5420 -88.1850 84° East 275 316 4,900  Level FlightAware
08:55PM 41.5440 -88.1420 86° East 275 316 4,900  Level FlightAware
08:55PM 41.5470 -88.1040 84° East 277 319 4,900  Level FlightAware
08:56PM 41.5500 -88.0570 85° East 277 319 4,900  Level FlightAware
08:56PM 41.5530 -88.0120 85° East 276 318 4,900  Level FlightAware
08:56PM 41.5550 -87.9850 84° East 276 318 4,900  Level FlightAware
08:57PM 41.5580 -87.9410 85° East 276 318 4,900  Level FlightAware
08:57PM 41.5610 -87.9070 83° East 276 318 4,900 -660 Level FlightAware
08:57PM 41.5690 -87.8810 68° East 280 322 4,500 -1,680 Descending FlightAware
08:58PM 41.5950 -87.8450 46° Northeast 278 320 3,700 -1,740 Descending FlightAware
08:58PM 41.6190 -87.8100 47° Northeast 275 316 2,900 -1,320 Descending FlightAware
08:59PM 41.6420 -87.7770 47° Northeast 265 305 2,500 -540 Descending FlightAware
08:59PM 41.6680 -87.7480 40° Northeast 244 281 2,400 -120 Descending FlightAware
09:00PM 41.6930 -87.7270 32° Northeast 236 272 2,400  Level FlightAware
09:00PM 41.7180 -87.7090 28° Northeast 235 270 2,400 -300 Level FlightAware
09:00PM 41.7340 -87.6980 27° Northeast 227 261 2,200 -540 Descending FlightAware
09:01PM 41.7580 -87.6810 28° Northeast 209 241 2,000 -480 Descending FlightAware
09:01PM 41.7830 -87.6730 13° North 180 207 1,800 -480 Descending FlightAware
09:02PM 41.7930 -87.6740 356° North 177 204 1,700 -660 Descending FlightAware
09:02PM 41.8040 -87.6810 335° Northwest 157 181 1,500 -660 Descending FlightAware
09:02PM 41.8100 -87.6890 315° West 152 175 1,400 -480 Descending FlightAware
09:02PM 41.8140 -87.7040 290° West 145 167 1,300 -720 Descending FlightAware
09:03PM 41.8070 -87.7240 245° Southwest 137 158 900 -480 Descending FlightAware
09:03PM 41.7960 -87.7390 225° Southwest 135 155 900  Level FlightAware